createdAt,value
2022-10-11T00:00:45.790Z,1002.19
2022-10-11T00:01:45.724Z,1002.21
2022-10-11T00:02:45.663Z,1002.18
2022-10-11T00:03:45.561Z,1002.16
2022-10-11T00:04:45.508Z,1002.15
2022-10-11T00:05:45.434Z,1002.21
2022-10-11T00:06:45.391Z,1002.21
2022-10-11T00:07:45.301Z,1002.18
2022-10-11T00:08:45.252Z,1002.21
2022-10-11T00:09:45.183Z,1002.21
2022-10-11T00:10:45.123Z,1002.20
2022-10-11T00:11:45.050Z,1002.24
2022-10-11T00:12:45.009Z,1002.25
2022-10-11T00:13:44.933Z,1002.25
2022-10-11T00:14:44.871Z,1002.25
2022-10-11T00:15:44.830Z,1002.23
2022-10-11T00:16:44.742Z,1002.22
2022-10-11T00:17:44.674Z,1002.24
2022-10-11T00:18:44.619Z,1002.26
2022-10-11T00:19:44.563Z,1002.30
2022-10-11T00:20:44.511Z,1002.30
2022-10-11T00:21:44.423Z,1002.32
2022-10-11T00:22:44.383Z,1002.33
2022-10-11T00:23:44.298Z,1002.35
2022-10-11T00:24:44.218Z,1002.30
2022-10-11T00:25:44.195Z,1002.33
2022-10-11T00:26:47.144Z,1002.36
2022-10-11T00:27:44.038Z,1002.32
2022-10-11T00:28:44.053Z,1002.35
2022-10-11T00:29:43.945Z,1002.39
2022-10-11T00:30:43.850Z,1002.39
2022-10-11T00:31:43.818Z,1002.34
2022-10-11T00:32:43.737Z,1002.35
2022-10-11T00:33:43.661Z,1002.33
2022-10-11T00:34:43.615Z,1002.39
2022-10-11T00:35:43.528Z,1002.42
2022-10-11T00:36:43.505Z,1002.43
2022-10-11T00:37:43.401Z,1002.46
2022-10-11T00:38:43.336Z,1002.43
2022-10-11T00:39:43.286Z,1002.47
2022-10-11T00:40:44.204Z,1002.49
2022-10-11T00:41:43.152Z,1002.47
2022-10-11T00:42:43.108Z,1002.49
2022-10-11T00:43:43.010Z,1002.48
2022-10-11T00:44:45.279Z,1002.49
2022-10-11T00:45:42.874Z,1002.54
2022-10-11T00:46:42.821Z,1002.52
2022-10-11T00:47:43.696Z,1002.48
2022-10-11T00:48:42.692Z,1002.54
2022-10-11T00:49:42.628Z,1002.54
2022-10-11T00:50:42.606Z,1002.54
2022-10-11T00:51:42.541Z,1002.53
2022-10-11T00:52:42.443Z,1002.52
2022-10-11T00:53:42.376Z,1002.59
2022-10-11T00:54:42.355Z,1002.61
2022-10-11T00:55:42.262Z,1002.68
2022-10-11T00:56:42.191Z,1002.65
2022-10-11T00:57:42.168Z,1002.69
2022-10-11T00:58:42.054Z,1002.68
2022-10-11T00:59:41.978Z,1002.67
2022-10-11T01:00:41.938Z,1002.69
2022-10-11T01:01:41.940Z,1002.68
2022-10-11T01:02:43.033Z,1002.71
2022-10-11T01:03:41.749Z,1002.71
2022-10-11T01:04:41.655Z,1002.77
2022-10-11T01:05:41.606Z,1002.72
2022-10-11T01:06:41.557Z,1002.73
2022-10-11T01:07:41.466Z,1002.70
2022-10-11T01:08:41.424Z,1002.74
2022-10-11T01:09:41.348Z,1002.78
2022-10-11T01:10:41.285Z,1002.76
2022-10-11T01:11:41.220Z,1002.81
2022-10-11T01:12:41.171Z,1002.72
2022-10-11T01:13:41.100Z,1002.74
2022-10-11T01:14:41.033Z,1002.74
2022-10-11T01:15:40.948Z,1002.77
2022-10-11T01:16:40.899Z,1002.80
2022-10-11T01:17:40.842Z,1002.79
2022-10-11T01:18:40.756Z,1002.81
2022-10-11T01:19:40.709Z,1002.78
2022-10-11T01:20:40.643Z,1002.77
2022-10-11T01:21:40.560Z,1002.76
2022-10-11T01:22:40.518Z,1002.81
2022-10-11T01:23:40.458Z,1002.80
2022-10-11T01:24:40.389Z,1002.78
2022-10-11T01:25:40.323Z,1002.75
2022-10-11T01:26:40.329Z,1002.77
2022-10-11T01:27:40.192Z,1002.75
2022-10-11T01:28:40.413Z,1002.78
2022-10-11T01:29:40.056Z,1002.77
2022-10-11T01:30:39.996Z,1002.76
2022-10-11T01:31:39.935Z,1002.77
2022-10-11T01:32:39.889Z,1002.76
2022-10-11T01:33:39.819Z,1002.78
2022-10-11T01:34:39.730Z,1002.79
2022-10-11T01:35:39.688Z,1002.79
2022-10-11T01:36:39.614Z,1002.78
2022-10-11T01:37:39.559Z,1002.78
2022-10-11T01:38:39.503Z,1002.79
2022-10-11T01:39:39.422Z,1002.79
2022-10-11T01:40:39.362Z,1002.80
2022-10-11T01:41:39.283Z,1002.78
2022-10-11T01:42:39.229Z,1002.81
2022-10-11T01:43:39.166Z,1002.79
2022-10-11T01:44:41.516Z,1002.83
2022-10-11T01:45:39.047Z,1002.81
2022-10-11T01:46:38.978Z,1002.82
2022-10-11T01:47:38.945Z,1002.80
2022-10-11T01:48:38.849Z,1002.80
2022-10-11T01:49:38.770Z,1002.78
2022-10-11T01:50:38.724Z,1002.80
2022-10-11T01:51:38.653Z,1002.79
2022-10-11T01:52:38.593Z,1002.83
2022-10-11T01:53:38.535Z,1002.89
2022-10-11T01:55:07.551Z,1002.87
2022-10-11T01:55:38.394Z,1002.90
2022-10-11T01:56:38.367Z,1002.87
2022-10-11T01:57:38.274Z,1002.89
2022-10-11T01:58:38.194Z,1002.88
2022-10-11T01:59:38.145Z,1002.88
2022-10-11T02:00:38.081Z,1002.88
2022-10-11T02:01:38.039Z,1002.91
2022-10-11T02:02:38.765Z,1002.89
2022-10-11T02:03:37.889Z,1002.89
2022-10-11T02:04:37.840Z,1002.90
2022-10-11T02:05:37.758Z,1002.91
2022-10-11T02:06:37.690Z,1002.94
2022-10-11T02:07:37.631Z,1002.96
2022-10-11T02:08:39.117Z,1002.92
2022-10-11T02:09:37.503Z,1002.95
2022-10-11T02:10:37.435Z,1002.99
2022-10-11T02:11:37.360Z,1002.98
2022-10-11T02:12:37.312Z,1002.99
2022-10-11T02:13:37.243Z,1003.04
2022-10-11T02:14:37.171Z,1003.01
2022-10-11T02:15:37.103Z,1003.00
2022-10-11T02:16:37.040Z,1003.01
2022-10-11T02:17:37.011Z,1003.01
2022-10-11T02:18:36.919Z,1003.00
2022-10-11T02:19:36.882Z,1003.00
2022-10-11T02:20:36.799Z,1002.99
2022-10-11T02:21:36.736Z,1003.03
2022-10-11T02:22:36.655Z,1003.04
2022-10-11T02:23:36.586Z,1003.04
2022-10-11T02:24:36.542Z,1003.02
2022-10-11T02:25:36.469Z,1003.02
2022-10-11T02:26:36.415Z,1003.03
2022-10-11T02:27:36.343Z,1003.03
2022-10-11T02:28:36.352Z,1003.04
2022-10-11T02:29:36.232Z,1003.03
2022-10-11T02:30:36.157Z,1003.05
2022-10-11T02:31:36.072Z,1003.05
2022-10-11T02:32:37.139Z,1003.03
2022-10-11T02:33:35.951Z,1003.03
2022-10-11T02:34:35.897Z,1003.06
2022-10-11T02:35:35.836Z,1003.12
2022-10-11T02:36:35.758Z,1003.08
2022-10-11T02:37:35.690Z,1003.07
2022-10-11T02:38:35.660Z,1003.12
2022-10-11T02:39:35.579Z,1003.09
2022-10-11T02:40:35.524Z,1003.09
2022-10-11T02:41:35.450Z,1003.14
2022-10-11T02:42:35.367Z,1003.14
2022-10-11T02:43:35.321Z,1003.17
2022-10-11T02:44:35.262Z,1003.15
2022-10-11T02:45:35.186Z,1003.18
2022-10-11T02:46:35.112Z,1003.16
2022-10-11T02:47:35.048Z,1003.20
2022-10-11T02:48:34.989Z,1003.22
2022-10-11T02:49:34.939Z,1003.14
2022-10-11T02:50:36.092Z,1003.17
2022-10-11T02:51:34.788Z,1003.19
2022-10-11T02:52:34.732Z,1003.16
2022-10-11T02:53:34.661Z,1003.21
2022-10-11T02:54:34.600Z,1003.22
2022-10-11T02:55:34.537Z,1003.20
2022-10-11T02:56:35.247Z,1003.22
2022-10-11T02:57:34.418Z,1003.27
2022-10-11T02:58:34.363Z,1003.22
2022-10-11T02:59:34.275Z,1003.26
2022-10-11T03:00:34.222Z,1003.27
2022-10-11T03:01:34.246Z,1003.25
2022-10-11T03:02:34.102Z,1003.27
2022-10-11T03:03:34.069Z,1003.28
2022-10-11T03:04:33.977Z,1003.31
2022-10-11T03:05:33.896Z,1003.35
2022-10-11T03:06:33.824Z,1003.35
2022-10-11T03:07:33.789Z,1003.40
2022-10-11T03:08:34.507Z,1003.42
2022-10-11T03:09:33.662Z,1003.45
2022-10-11T03:10:33.575Z,1003.45
2022-10-11T03:11:33.502Z,1003.45
2022-10-11T03:12:33.456Z,1003.45
2022-10-11T03:13:33.389Z,1003.50
2022-10-11T03:14:34.137Z,1003.48
2022-10-11T03:15:33.270Z,1003.51
2022-10-11T03:16:33.181Z,1003.47
2022-10-11T03:17:37.317Z,1003.50
2022-10-11T03:18:33.099Z,1003.50
2022-10-11T03:19:34.496Z,1003.50
2022-10-11T03:20:32.973Z,1003.57
2022-10-11T03:21:32.878Z,1003.52
2022-10-11T03:22:32.811Z,1003.58
2022-10-11T03:23:32.746Z,1003.58
2022-10-11T03:24:32.672Z,1003.60
2022-10-11T03:25:32.621Z,1003.62
2022-10-11T03:26:33.325Z,1003.64
2022-10-11T03:27:32.489Z,1003.63
2022-10-11T03:28:32.515Z,1003.68
2022-10-11T03:29:32.353Z,1003.69
2022-10-11T03:30:32.295Z,1003.66
2022-10-11T03:31:32.232Z,1003.62
2022-10-11T03:32:33.717Z,1003.62
2022-10-11T03:33:32.093Z,1003.67
2022-10-11T03:34:32.031Z,1003.67
2022-10-11T03:35:31.965Z,1003.67
2022-10-11T03:36:31.902Z,1003.68
2022-10-11T03:37:31.845Z,1003.71
2022-10-11T03:38:33.698Z,1003.67
2022-10-11T03:39:31.717Z,1003.70
2022-10-11T03:40:31.640Z,1003.67
2022-10-11T03:41:31.588Z,1003.71
2022-10-11T03:42:31.517Z,1003.70
2022-10-11T03:43:31.465Z,1003.69
2022-10-11T03:44:32.173Z,1003.71
2022-10-11T03:45:31.340Z,1003.73
2022-10-11T03:46:31.255Z,1003.77
2022-10-11T03:47:31.207Z,1003.77
2022-10-11T03:48:31.138Z,1003.73
2022-10-11T03:49:31.074Z,1003.76
2022-10-11T03:50:31.837Z,1003.81
2022-10-11T03:51:30.944Z,1003.78
2022-10-11T03:52:30.885Z,1003.77
2022-10-11T03:53:30.822Z,1003.75
2022-10-11T03:54:30.760Z,1003.79
2022-10-11T03:55:30.702Z,1003.76
2022-10-11T03:56:30.624Z,1003.76
2022-10-11T03:57:30.567Z,1003.79
2022-10-11T03:58:30.486Z,1003.77
2022-10-11T03:59:30.454Z,1003.85
2022-10-11T04:00:30.371Z,1003.82
2022-10-11T04:01:30.419Z,1003.83
2022-10-11T04:02:30.251Z,1003.83
2022-10-11T04:03:30.182Z,1003.85
2022-10-11T04:04:30.117Z,1003.84
2022-10-11T04:05:30.029Z,1003.84
2022-10-11T04:06:29.979Z,1003.85
2022-10-11T04:07:29.916Z,1003.87
2022-10-11T04:08:29.999Z,1003.89
2022-10-11T04:09:29.796Z,1003.95
2022-10-11T04:10:29.753Z,1003.92
2022-10-11T04:11:29.655Z,1003.97
2022-10-11T04:12:29.594Z,1003.94
2022-10-11T04:13:29.517Z,1003.96
2022-10-11T04:14:29.479Z,1003.99
2022-10-11T04:15:29.401Z,1004.00
2022-10-11T04:16:29.343Z,1003.97
2022-10-11T04:17:29.259Z,1003.96
2022-10-11T04:18:29.228Z,1003.96
2022-10-11T04:19:29.129Z,1004.00
2022-10-11T04:20:29.104Z,1003.96
2022-10-11T04:21:29.023Z,1003.97
2022-10-11T04:22:28.939Z,1003.96
2022-10-11T04:23:28.874Z,1004.01
2022-10-11T04:24:28.829Z,1003.97
2022-10-11T04:25:28.762Z,1004.03
2022-10-11T04:26:28.707Z,1004.06
2022-10-11T04:27:28.619Z,1004.08
2022-10-11T04:28:28.597Z,1004.07
2022-10-11T04:29:32.375Z,1004.08
2022-10-11T04:30:28.440Z,1004.11
2022-10-11T04:31:28.360Z,1004.11
2022-10-11T04:32:28.338Z,1004.13
2022-10-11T04:33:28.226Z,1004.17
2022-10-11T04:34:28.162Z,1004.18
2022-10-11T04:35:28.115Z,1004.19
2022-10-11T04:36:28.038Z,1004.21
2022-10-11T04:37:27.988Z,1004.14
2022-10-11T04:38:31.043Z,1004.15
2022-10-11T04:39:27.844Z,1004.17
2022-10-11T04:40:27.797Z,1004.22
2022-10-11T04:41:27.731Z,1004.19
2022-10-11T04:42:27.675Z,1004.22
2022-10-11T04:43:27.619Z,1004.24
2022-10-11T04:44:27.554Z,1004.25
2022-10-11T04:45:27.479Z,1004.24
2022-10-11T04:46:27.410Z,1004.21
2022-10-11T04:47:27.343Z,1004.22
2022-10-11T04:48:27.311Z,1004.22
2022-10-11T04:49:27.216Z,1004.22
2022-10-11T04:50:27.151Z,1004.27
2022-10-11T04:51:27.116Z,1004.19
2022-10-11T04:52:27.029Z,1004.25
2022-10-11T04:53:26.944Z,1004.25
2022-10-11T04:54:26.891Z,1004.30
2022-10-11T04:55:26.817Z,1004.31
2022-10-11T04:56:26.785Z,1004.27
2022-10-11T04:57:26.687Z,1004.32
2022-10-11T04:58:26.625Z,1004.30
2022-10-11T04:59:26.572Z,1004.28
2022-10-11T05:00:26.490Z,1004.32
2022-10-11T05:01:26.440Z,1004.35
2022-10-11T05:02:26.451Z,1004.34
2022-10-11T05:03:26.329Z,1004.30
2022-10-11T05:04:26.259Z,1004.30
2022-10-11T05:05:26.170Z,1004.33
2022-10-11T05:06:26.107Z,1004.32
2022-10-11T05:07:26.074Z,1004.31
2022-10-11T05:08:27.552Z,1004.36
2022-10-11T05:09:25.923Z,1004.36
2022-10-11T05:10:25.854Z,1004.37
2022-10-11T05:11:25.743Z,1004.34
2022-10-11T05:12:25.729Z,1004.33
2022-10-11T05:13:25.621Z,1004.37
2022-10-11T05:14:27.098Z,1004.39
2022-10-11T05:15:25.489Z,1004.40
2022-10-11T05:16:25.428Z,1004.38
2022-10-11T05:17:25.364Z,1004.39
2022-10-11T05:18:25.285Z,1004.41
2022-10-11T05:19:25.213Z,1004.41
2022-10-11T05:20:25.174Z,1004.42
2022-10-11T05:21:25.102Z,1004.42
2022-10-11T05:22:25.032Z,1004.44
2022-10-11T05:23:25.073Z,1004.44
2022-10-11T05:24:24.909Z,1004.43
2022-10-11T05:25:24.840Z,1004.40
2022-10-11T05:26:25.581Z,1004.40
2022-10-11T05:27:24.707Z,1004.41
2022-10-11T05:28:24.728Z,1004.42
2022-10-11T05:29:24.586Z,1004.39
2022-10-11T05:30:24.512Z,1004.40
2022-10-11T05:31:24.444Z,1004.41
2022-10-11T05:32:27.694Z,1004.42
2022-10-11T05:33:24.323Z,1004.39
2022-10-11T05:34:24.282Z,1004.44
2022-10-11T05:35:24.205Z,1004.40
2022-10-11T05:36:24.148Z,1004.45
2022-10-11T05:37:24.066Z,1004.46
2022-10-11T05:38:25.551Z,1004.50
2022-10-11T05:39:23.936Z,1004.50
2022-10-11T05:40:23.868Z,1004.50
2022-10-11T05:41:23.822Z,1004.54
2022-10-11T05:42:23.772Z,1004.59
2022-10-11T05:43:23.673Z,1004.60
2022-10-11T05:44:23.637Z,1004.58
2022-10-11T05:45:23.544Z,1004.66
2022-10-11T05:46:23.489Z,1004.68
2022-10-11T05:47:23.420Z,1004.68
2022-10-11T05:48:23.368Z,1004.70
2022-10-11T05:49:23.304Z,1004.70
2022-10-11T05:50:24.440Z,1004.67
2022-10-11T05:51:23.193Z,1004.68
2022-10-11T05:52:23.118Z,1004.70
2022-10-11T05:53:23.083Z,1004.69
2022-10-11T05:54:22.961Z,1004.73
2022-10-11T05:55:22.899Z,1004.75
2022-10-11T05:56:23.639Z,1004.73
2022-10-11T05:57:22.791Z,1004.73
2022-10-11T05:58:22.709Z,1004.76
2022-10-11T05:59:22.641Z,1004.79
2022-10-11T06:00:22.598Z,1004.77
2022-10-11T06:01:22.595Z,1004.82
2022-10-11T06:02:22.514Z,1004.79
2022-10-11T06:03:22.393Z,1004.83
2022-10-11T06:04:22.342Z,1004.85
2022-10-11T06:05:22.304Z,1004.87
2022-10-11T06:06:22.192Z,1004.92
2022-10-11T06:07:22.149Z,1004.99
2022-10-11T06:08:22.865Z,1004.92
2022-10-11T06:09:22.026Z,1004.97
2022-10-11T06:10:22.059Z,1005.01
2022-10-11T06:11:21.879Z,1005.02
2022-10-11T06:12:21.837Z,1005.06
2022-10-11T06:13:21.756Z,1005.03
2022-10-11T06:14:21.735Z,1005.13
2022-10-11T06:15:21.621Z,1005.13
2022-10-11T06:16:21.575Z,1005.16
2022-10-11T06:17:21.522Z,1005.12
2022-10-11T06:18:21.428Z,1005.14
2022-10-11T06:19:21.405Z,1005.15
2022-10-11T06:20:21.322Z,1005.19
2022-10-11T06:21:21.265Z,1005.19
2022-10-11T06:22:21.194Z,1005.18
2022-10-11T06:23:21.118Z,1005.21
2022-10-11T06:24:21.036Z,1005.24
2022-10-11T06:25:20.986Z,1005.23
2022-10-11T06:26:21.721Z,1005.25
2022-10-11T06:27:20.857Z,1005.24
2022-10-11T06:28:20.867Z,1005.25
2022-10-11T06:29:20.738Z,1005.25
2022-10-11T06:30:20.720Z,1005.27
2022-10-11T06:31:20.638Z,1005.26
2022-10-11T06:32:20.551Z,1005.26
2022-10-11T06:33:20.461Z,1005.28
2022-10-11T06:34:20.396Z,1005.32
2022-10-11T06:35:20.341Z,1005.29
2022-10-11T06:36:20.286Z,1005.33
2022-10-11T06:37:20.207Z,1005.38
2022-10-11T06:38:20.198Z,1005.31
2022-10-11T06:39:20.080Z,1005.35
2022-10-11T06:40:20.032Z,1005.32
2022-10-11T06:41:19.953Z,1005.32
2022-10-11T06:42:19.882Z,1005.29
2022-10-11T06:43:19.836Z,1005.38
2022-10-11T06:44:22.887Z,1005.36
2022-10-11T06:45:19.701Z,1005.31
2022-10-11T06:46:19.643Z,1005.38
2022-10-11T06:47:19.562Z,1005.44
2022-10-11T06:48:19.507Z,1005.45
2022-10-11T06:49:22.974Z,1005.45
2022-10-11T06:50:34.850Z,1005.51
2022-10-11T06:51:19.314Z,1005.48
2022-10-11T06:52:19.250Z,1005.44
2022-10-11T06:53:19.188Z,1005.44
2022-10-11T06:54:19.175Z,1005.42
2022-10-11T06:55:19.049Z,1005.48
2022-10-11T06:56:20.101Z,1005.46
2022-10-11T06:57:18.935Z,1005.48
2022-10-11T06:58:18.863Z,1005.49
2022-10-11T06:59:18.788Z,1005.52
2022-10-11T07:00:18.728Z,1005.57
2022-10-11T07:01:18.751Z,1005.60
2022-10-11T07:02:18.612Z,1005.59
2022-10-11T07:03:18.531Z,1005.65
2022-10-11T07:04:18.473Z,1005.63
2022-10-11T07:05:18.409Z,1005.59
2022-10-11T07:06:18.331Z,1005.64
2022-10-11T07:07:18.300Z,1005.63
2022-10-11T07:08:19.776Z,1005.66
2022-10-11T07:09:18.160Z,1005.67
2022-10-11T07:10:18.104Z,1005.66
2022-10-11T07:11:18.044Z,1005.69
2022-10-11T07:12:17.950Z,1005.71
2022-10-11T07:13:17.927Z,1005.73
2022-10-11T07:14:19.386Z,1005.79
2022-10-11T07:15:17.767Z,1005.79
2022-10-11T07:16:17.692Z,1005.80
2022-10-11T07:17:17.655Z,1005.85
2022-10-11T07:18:17.591Z,1005.91
2022-10-11T07:19:17.510Z,1005.92
2022-10-11T07:20:17.482Z,1005.94
2022-10-11T07:21:17.379Z,1005.96
2022-10-11T07:22:17.314Z,1005.97
2022-10-11T07:23:17.274Z,1005.99
2022-10-11T07:24:17.198Z,1005.98
2022-10-11T07:25:17.136Z,1005.94
2022-10-11T07:26:20.113Z,1005.97
2022-10-11T07:27:17.010Z,1005.99
2022-10-11T07:28:17.049Z,1006.02
2022-10-11T07:29:16.873Z,1005.98
2022-10-11T07:30:16.800Z,1006.04
2022-10-11T07:31:16.814Z,1006.04
2022-10-11T07:32:18.224Z,1006.01
2022-10-11T07:33:16.638Z,1006.08
2022-10-11T07:34:16.553Z,1006.05
2022-10-11T07:35:16.477Z,1006.08
2022-10-11T07:36:16.466Z,1006.11
2022-10-11T07:37:16.375Z,1006.09
2022-10-11T07:38:16.322Z,1006.10
2022-10-11T07:39:16.524Z,1006.10
2022-10-11T07:40:16.180Z,1006.13
2022-10-11T07:41:16.102Z,1006.08
2022-10-11T07:42:16.036Z,1006.09
2022-10-11T07:43:15.980Z,1006.05
2022-10-11T07:44:15.920Z,1006.07
2022-10-11T07:45:15.932Z,1006.06
2022-10-11T07:46:15.781Z,1006.10
2022-10-11T07:47:15.715Z,1006.08
2022-10-11T07:48:15.641Z,1006.09
2022-10-11T07:49:15.603Z,1006.15
2022-10-11T07:50:17.072Z,1006.11
2022-10-11T07:51:15.477Z,1006.11
2022-10-11T07:52:15.402Z,1006.11
2022-10-11T07:53:15.333Z,1006.13
2022-10-11T07:54:15.274Z,1006.08
2022-10-11T07:55:15.187Z,1006.10
2022-10-11T07:56:15.154Z,1006.11
2022-10-11T07:57:15.071Z,1006.12
2022-10-11T07:58:15.019Z,1006.13
2022-10-11T07:59:14.939Z,1006.14
2022-10-11T08:00:14.891Z,1006.16
2022-10-11T08:01:14.934Z,1006.14
2022-10-11T08:02:16.326Z,1006.15
2022-10-11T08:03:14.729Z,1006.14
2022-10-11T08:04:14.656Z,1006.16
2022-10-11T08:05:14.582Z,1006.16
2022-10-11T08:06:14.542Z,1006.19
2022-10-11T08:07:14.437Z,1006.18
2022-10-11T08:08:18.154Z,1006.23
2022-10-11T08:09:14.314Z,1006.23
2022-10-11T08:10:14.265Z,1006.26
2022-10-11T08:11:14.171Z,1006.23
2022-10-11T08:12:14.175Z,1006.23
2022-10-11T08:13:14.056Z,1006.26
2022-10-11T08:14:14.784Z,1006.27
2022-10-11T08:15:13.938Z,1006.28
2022-10-11T08:16:13.874Z,1006.31
2022-10-11T08:17:13.798Z,1006.32
2022-10-11T08:18:13.752Z,1006.36
2022-10-11T08:19:13.786Z,1006.36
2022-10-11T08:20:13.640Z,1006.32
2022-10-11T08:21:13.538Z,1006.35
2022-10-11T08:22:13.499Z,1006.36
2022-10-11T08:23:13.434Z,1006.33
2022-10-11T08:24:13.356Z,1006.32
2022-10-11T08:25:13.279Z,1006.32
2022-10-11T08:26:13.247Z,1006.36
2022-10-11T08:27:13.148Z,1006.37
2022-10-11T08:28:13.148Z,1006.35
2022-10-11T08:29:13.049Z,1006.31
2022-10-11T08:30:12.954Z,1006.33
2022-10-11T08:31:12.894Z,1006.33
2022-10-11T08:32:12.923Z,1006.33
2022-10-11T08:33:12.799Z,1006.30
2022-10-11T08:34:12.736Z,1006.29
2022-10-11T08:35:12.663Z,1006.30
2022-10-11T08:36:12.623Z,1006.31
2022-10-11T08:37:12.508Z,1006.30
2022-10-11T08:38:13.661Z,1006.29
2022-10-11T08:39:12.401Z,1006.28
2022-10-11T08:40:12.323Z,1006.27
2022-10-11T08:41:12.267Z,1006.31
2022-10-11T08:42:12.217Z,1006.30
2022-10-11T08:43:12.129Z,1006.33
2022-10-11T08:44:12.428Z,1006.33
2022-10-11T08:45:12.414Z,1006.33
2022-10-11T08:46:11.931Z,1006.34
2022-10-11T08:47:11.879Z,1006.34
2022-10-11T08:48:11.828Z,1006.28
2022-10-11T08:49:11.749Z,1006.31
2022-10-11T08:50:11.692Z,1006.29
2022-10-11T08:51:11.624Z,1006.27
2022-10-11T08:52:11.574Z,1006.27
2022-10-11T08:53:11.505Z,1006.28
2022-10-11T08:54:11.515Z,1006.28
2022-10-11T08:55:11.373Z,1006.29
2022-10-11T08:56:11.375Z,1006.29
2022-10-11T08:57:11.266Z,1006.29
2022-10-11T08:58:11.203Z,1006.33
2022-10-11T08:59:11.117Z,1006.33
2022-10-11T09:00:11.036Z,1006.35
2022-10-11T09:01:11.054Z,1006.35
2022-10-11T09:02:12.147Z,1006.33
2022-10-11T09:03:10.848Z,1006.36
2022-10-11T09:04:10.865Z,1006.33
2022-10-11T09:05:10.750Z,1006.30
2022-10-11T09:06:10.666Z,1006.28
2022-10-11T09:07:10.610Z,1006.21
2022-10-11T09:08:11.604Z,1006.23
2022-10-11T09:09:10.487Z,1006.21
2022-10-11T09:10:10.398Z,1006.20
2022-10-11T09:11:10.346Z,1006.23
2022-10-11T09:12:10.287Z,1006.27
2022-10-11T09:13:10.201Z,1006.25
2022-10-11T09:14:10.169Z,1006.26
2022-10-11T09:15:10.076Z,1006.29
2022-10-11T09:16:10.032Z,1006.30
2022-10-11T09:17:10.004Z,1006.28
2022-10-11T09:18:10.021Z,1006.27
2022-10-11T09:19:09.819Z,1006.30
2022-10-11T09:20:09.831Z,1006.27
2022-10-11T09:21:09.706Z,1006.28
2022-10-11T09:22:10.702Z,1006.26
2022-10-11T09:23:09.581Z,1006.24
2022-10-11T09:24:10.190Z,1006.26
2022-10-11T09:25:09.437Z,1006.24
2022-10-11T09:26:09.642Z,1006.29
2022-10-11T09:27:09.321Z,1006.26
2022-10-11T09:28:09.295Z,1006.27
2022-10-11T09:29:09.278Z,1006.30
2022-10-11T09:30:09.133Z,1006.30
2022-10-11T09:31:09.060Z,1006.28
2022-10-11T09:32:12.186Z,1006.27
2022-10-11T09:33:08.932Z,1006.30
2022-10-11T09:34:08.889Z,1006.26
2022-10-11T09:35:08.797Z,1006.25
2022-10-11T09:36:08.967Z,1006.24
2022-10-11T09:37:08.695Z,1006.28
2022-10-11T09:38:08.642Z,1006.30
2022-10-11T09:39:08.546Z,1006.32
2022-10-11T09:40:08.514Z,1006.35
2022-10-11T09:41:08.420Z,1006.36
2022-10-11T09:42:08.367Z,1006.38
2022-10-11T09:43:08.299Z,1006.36
2022-10-11T09:44:08.260Z,1006.35
2022-10-11T09:45:08.163Z,1006.39
2022-10-11T09:46:08.446Z,1006.37
2022-10-11T09:47:08.064Z,1006.37
2022-10-11T09:48:07.967Z,1006.37
2022-10-11T09:49:07.927Z,1006.39
2022-10-11T09:50:08.144Z,1006.36
2022-10-11T09:51:07.787Z,1006.35
2022-10-11T09:52:07.723Z,1006.34
2022-10-11T09:53:07.671Z,1006.35
2022-10-11T09:54:07.628Z,1006.37
2022-10-11T09:55:07.532Z,1006.41
2022-10-11T09:56:07.951Z,1006.35
2022-10-11T09:57:07.403Z,1006.38
2022-10-11T09:58:07.345Z,1006.38
2022-10-11T09:59:07.292Z,1006.40
2022-10-11T10:00:07.202Z,1006.34
2022-10-11T10:01:08.355Z,1006.31
2022-10-11T10:02:07.937Z,1006.35
2022-10-11T10:03:07.027Z,1006.33
2022-10-11T10:04:06.946Z,1006.37
2022-10-11T10:05:06.900Z,1006.34
2022-10-11T10:06:07.537Z,1006.33
2022-10-11T10:07:06.756Z,1006.33
2022-10-11T10:08:06.704Z,1006.36
2022-10-11T10:09:06.652Z,1006.36
2022-10-11T10:10:06.565Z,1006.34
2022-10-11T10:11:06.494Z,1006.32
2022-10-11T10:12:06.451Z,1006.30
2022-10-11T10:13:06.387Z,1006.32
2022-10-11T10:14:06.361Z,1006.31
2022-10-11T10:15:06.246Z,1006.30
2022-10-11T10:16:06.586Z,1006.27
2022-10-11T10:17:06.131Z,1006.27
2022-10-11T10:18:06.050Z,1006.24
2022-10-11T10:19:06.143Z,1006.29
2022-10-11T10:20:05.942Z,1006.31
2022-10-11T10:21:05.934Z,1006.30
2022-10-11T10:22:05.809Z,1006.34
2022-10-11T10:23:05.736Z,1006.31
2022-10-11T10:24:05.692Z,1006.34
2022-10-11T10:25:05.599Z,1006.35
2022-10-11T10:26:06.027Z,1006.34
2022-10-11T10:27:05.495Z,1006.30
2022-10-11T10:28:05.425Z,1006.30
2022-10-11T10:29:05.371Z,1006.34
2022-10-11T10:30:05.305Z,1006.36
2022-10-11T10:31:05.261Z,1006.32
2022-10-11T10:32:20.499Z,1006.38
2022-10-11T10:33:05.139Z,1006.35
2022-10-11T10:34:05.035Z,1006.32
2022-10-11T10:35:04.977Z,1006.27
2022-10-11T10:36:05.132Z,1006.28
2022-10-11T10:37:04.837Z,1006.31
2022-10-11T10:38:05.597Z,1006.32
2022-10-11T10:39:04.736Z,1006.25
2022-10-11T10:40:04.673Z,1006.27
2022-10-11T10:41:04.599Z,1006.28
2022-10-11T10:42:04.545Z,1006.23
2022-10-11T10:43:04.467Z,1006.26
2022-10-11T10:44:05.616Z,1006.24
2022-10-11T10:45:07.328Z,1006.21
2022-10-11T10:46:04.620Z,1006.22
2022-10-11T10:47:04.215Z,1006.22
2022-10-11T10:48:04.152Z,1006.22
2022-10-11T10:49:41.530Z,1006.21
2022-10-11T10:50:04.036Z,1006.23
2022-10-11T10:51:08.344Z,1006.24
2022-10-11T10:52:03.908Z,1006.23
2022-10-11T10:53:04.610Z,1006.21
2022-10-11T10:54:03.780Z,1006.21
2022-10-11T10:55:03.704Z,1006.19
2022-10-11T10:56:04.063Z,1006.24
2022-10-11T10:57:03.607Z,1006.23
2022-10-11T10:58:03.520Z,1006.19
2022-10-11T10:59:03.442Z,1006.24
2022-10-11T11:00:03.380Z,1006.25
2022-10-11T11:01:03.321Z,1006.20
2022-10-11T11:02:21.409Z,1006.21
2022-10-11T11:03:03.200Z,1006.18
2022-10-11T11:04:03.131Z,1006.25
2022-10-11T11:05:03.121Z,1006.23
2022-10-11T11:06:03.447Z,1006.19
2022-10-11T11:07:03.699Z,1006.18
2022-10-11T11:08:08.156Z,1006.18
2022-10-11T11:09:07.107Z,1006.19
2022-10-11T11:10:03.500Z,1006.18
2022-10-11T11:11:03.540Z,1006.18
2022-10-11T11:12:02.624Z,1006.20
2022-10-11T11:13:02.572Z,1006.15
2022-10-11T11:14:02.509Z,1006.21
2022-10-11T11:15:02.588Z,1006.12
2022-10-11T11:16:02.718Z,1006.14
2022-10-11T11:17:02.310Z,1006.13
2022-10-11T11:18:02.247Z,1006.12
2022-10-11T11:19:02.193Z,1006.12
2022-10-11T11:20:03.107Z,1006.12
2022-10-11T11:21:02.088Z,1006.08
2022-10-11T11:22:01.989Z,1006.08
2022-10-11T11:23:01.923Z,1006.13
2022-10-11T11:24:01.867Z,1006.10
2022-10-11T11:25:01.787Z,1006.14
2022-10-11T11:26:01.818Z,1006.10
2022-10-11T11:27:01.712Z,1006.15
2022-10-11T11:28:01.624Z,1006.13
2022-10-11T11:29:01.526Z,1006.13
2022-10-11T11:30:01.669Z,1006.10
2022-10-11T11:31:01.404Z,1006.06
2022-10-11T11:32:03.633Z,1006.06
2022-10-11T11:33:01.287Z,1006.04
2022-10-11T11:34:01.228Z,1006.05
2022-10-11T11:35:01.170Z,1006.09
2022-10-11T11:36:01.126Z,1006.09
2022-10-11T11:37:01.059Z,1006.06
2022-10-11T11:38:06.100Z,1006.05
2022-10-11T11:39:00.899Z,1006.06
2022-10-11T11:40:00.864Z,1006.05
2022-10-11T11:41:00.798Z,1006.07
2022-10-11T11:42:00.713Z,1006.06
2022-10-11T11:43:01.599Z,1006.03
2022-10-11T11:44:02.100Z,1006.02
2022-10-11T11:45:00.531Z,1006.02
2022-10-11T11:46:00.470Z,1005.99
2022-10-11T11:47:00.426Z,1006.04
2022-10-11T11:48:00.353Z,1006.01
2022-10-11T11:49:00.286Z,1006.02
2022-10-11T11:50:00.337Z,1006.03
2022-10-11T11:51:00.151Z,1006.03
2022-10-11T11:52:00.086Z,1005.98
2022-10-11T11:53:00.026Z,1005.95
2022-10-11T11:53:59.945Z,1005.98
2022-10-11T11:55:03.787Z,1005.96
2022-10-11T11:56:01.029Z,1006.01
2022-10-11T11:56:59.745Z,1005.98
2022-10-11T11:58:03.301Z,1005.97
2022-10-11T11:58:59.637Z,1005.94
2022-10-11T11:59:59.565Z,1005.92
2022-10-11T12:00:59.511Z,1005.89
2022-10-11T12:01:59.492Z,1005.91
2022-10-11T12:02:59.364Z,1005.91
2022-10-11T12:04:00.100Z,1005.93
2022-10-11T12:04:59.243Z,1005.90